createdAt,value
2022-11-03T00:00:23.416Z,1011.87
2022-11-03T00:01:23.483Z,1011.85
2022-11-03T00:02:23.613Z,1011.82
2022-11-03T00:03:23.491Z,1011.86
2022-11-03T00:04:23.531Z,1011.85
2022-11-03T00:05:23.541Z,1011.77
2022-11-03T00:06:23.565Z,1011.78
2022-11-03T00:07:23.591Z,1011.80
2022-11-03T00:08:23.615Z,1011.84
2022-11-03T00:09:23.641Z,1011.81
2022-11-03T00:10:23.665Z,1011.85
2022-11-03T00:11:23.691Z,1011.84
2022-11-03T00:12:23.714Z,1011.91
2022-11-03T00:13:23.740Z,1011.82
2022-11-03T00:14:23.763Z,1011.85
2022-11-03T00:15:23.789Z,1011.81
2022-11-03T00:16:23.813Z,1011.79
2022-11-03T00:17:23.839Z,1011.79
2022-11-03T00:18:23.866Z,1011.80
2022-11-03T00:19:23.890Z,1011.75
2022-11-03T00:20:23.932Z,1011.75
2022-11-03T00:21:23.941Z,1011.74
2022-11-03T00:22:23.964Z,1011.78
2022-11-03T00:23:23.989Z,1011.76
2022-11-03T00:24:24.011Z,1011.74
2022-11-03T00:25:24.039Z,1011.79
2022-11-03T00:26:24.067Z,1011.71
2022-11-03T00:27:24.088Z,1011.72
2022-11-03T00:28:24.113Z,1011.72
2022-11-03T00:29:24.142Z,1011.72
2022-11-03T00:30:24.163Z,1011.65
2022-11-03T00:31:24.189Z,1011.70
2022-11-03T00:32:24.212Z,1011.64
2022-11-03T00:33:24.238Z,1011.65
2022-11-03T00:34:24.261Z,1011.63
2022-11-03T00:35:24.287Z,1011.63
2022-11-03T00:36:24.339Z,1011.61
2022-11-03T00:37:24.338Z,1011.58
2022-11-03T00:38:24.362Z,1011.56
2022-11-03T00:39:24.396Z,1011.57
2022-11-03T00:40:24.411Z,1011.60
2022-11-03T00:41:24.439Z,1011.58
2022-11-03T00:42:24.469Z,1011.65
2022-11-03T00:43:24.488Z,1011.64
2022-11-03T00:44:24.521Z,1011.58
2022-11-03T00:45:24.537Z,1011.59
2022-11-03T00:46:24.562Z,1011.58
2022-11-03T00:47:24.614Z,1011.53
2022-11-03T00:48:24.611Z,1011.49
2022-11-03T00:49:24.638Z,1011.50
2022-11-03T00:50:24.662Z,1011.47
2022-11-03T00:51:24.691Z,1011.45
2022-11-03T00:52:24.729Z,1011.54
2022-11-03T00:53:24.737Z,1011.48
2022-11-03T00:54:24.769Z,1011.49
2022-11-03T00:55:24.790Z,1011.43
2022-11-03T00:56:24.810Z,1011.45
2022-11-03T00:57:24.837Z,1011.43
2022-11-03T00:58:24.861Z,1011.37
2022-11-03T00:59:24.886Z,1011.44
2022-11-03T01:00:24.910Z,1011.40
2022-11-03T01:01:25.027Z,1011.44
2022-11-03T01:02:25.009Z,1011.39
2022-11-03T01:03:24.989Z,1011.38
2022-11-03T01:04:25.010Z,1011.34
2022-11-03T01:05:25.037Z,1011.33
2022-11-03T01:06:25.062Z,1011.36
2022-11-03T01:07:25.085Z,1011.33
2022-11-03T01:08:27.556Z,1011.36
2022-11-03T01:09:25.138Z,1011.34
2022-11-03T01:10:25.160Z,1011.32
2022-11-03T01:11:25.186Z,1011.31
2022-11-03T01:12:25.212Z,1011.29
2022-11-03T01:13:25.238Z,1011.25
2022-11-03T01:14:25.261Z,1011.29
2022-11-03T01:15:25.285Z,1011.29
2022-11-03T01:16:25.309Z,1011.24
2022-11-03T01:17:25.339Z,1011.25
2022-11-03T01:18:25.359Z,1011.26
2022-11-03T01:19:25.422Z,1011.21
2022-11-03T01:20:25.411Z,1011.25
2022-11-03T01:21:25.435Z,1011.21
2022-11-03T01:22:25.458Z,1011.22
2022-11-03T01:23:25.488Z,1011.16
2022-11-03T01:24:25.532Z,1011.17
2022-11-03T01:25:25.534Z,1011.09
2022-11-03T01:26:25.560Z,1011.16
2022-11-03T01:27:25.586Z,1011.14
2022-11-03T01:28:25.608Z,1011.10
2022-11-03T01:29:25.635Z,1011.13
2022-11-03T01:30:25.660Z,1011.12
2022-11-03T01:31:25.685Z,1011.12
2022-11-03T01:32:25.708Z,1011.08
2022-11-03T01:33:25.735Z,1011.09
2022-11-03T01:34:25.759Z,1011.05
2022-11-03T01:35:25.784Z,1011.05
2022-11-03T01:36:25.807Z,1011.03
2022-11-03T01:37:25.836Z,1011.03
2022-11-03T01:38:25.859Z,1011.01
2022-11-03T01:39:25.885Z,1010.99
2022-11-03T01:40:25.924Z,1010.88
2022-11-03T01:41:25.935Z,1010.97
2022-11-03T01:42:25.967Z,1010.93
2022-11-03T01:43:25.985Z,1010.96
2022-11-03T01:44:26.008Z,1010.88
2022-11-03T01:45:26.035Z,1010.81
2022-11-03T01:46:26.060Z,1010.82
2022-11-03T01:47:26.086Z,1010.86
2022-11-03T01:48:26.108Z,1010.80
2022-11-03T01:49:26.140Z,1010.81
2022-11-03T01:50:26.158Z,1010.82
2022-11-03T01:51:26.184Z,1010.81
2022-11-03T01:52:26.209Z,1010.80
2022-11-03T01:53:26.238Z,1010.80
2022-11-03T01:54:26.261Z,1010.80
2022-11-03T01:55:26.287Z,1010.76
2022-11-03T01:56:26.330Z,1010.81
2022-11-03T01:57:26.335Z,1010.76
2022-11-03T01:58:26.359Z,1010.78
2022-11-03T01:59:26.385Z,1010.78
2022-11-03T02:00:26.410Z,1010.73
2022-11-03T02:01:26.603Z,1010.68
2022-11-03T02:02:26.559Z,1010.62
2022-11-03T02:03:26.486Z,1010.59
2022-11-03T02:04:26.509Z,1010.61
2022-11-03T02:05:26.539Z,1010.57
2022-11-03T02:06:26.559Z,1010.53
2022-11-03T02:07:26.588Z,1010.56
2022-11-03T02:08:26.610Z,1010.51
2022-11-03T02:09:26.637Z,1010.54
2022-11-03T02:10:26.661Z,1010.50
2022-11-03T02:11:26.702Z,1010.50
2022-11-03T02:12:26.732Z,1010.48
2022-11-03T02:13:26.736Z,1010.51
2022-11-03T02:14:26.763Z,1010.50
2022-11-03T02:15:26.786Z,1010.46
2022-11-03T02:16:26.810Z,1010.47
2022-11-03T02:17:26.839Z,1010.46
2022-11-03T02:18:26.861Z,1010.39
2022-11-03T02:19:26.888Z,1010.41
2022-11-03T02:20:26.910Z,1010.40
2022-11-03T02:21:26.936Z,1010.41
2022-11-03T02:22:26.961Z,1010.38
2022-11-03T02:23:26.987Z,1010.38
2022-11-03T02:24:27.011Z,1010.31
2022-11-03T02:25:27.039Z,1010.30
2022-11-03T02:26:27.060Z,1010.28
2022-11-03T02:27:27.086Z,1010.33
2022-11-03T02:28:27.130Z,1010.27
2022-11-03T02:29:27.136Z,1010.31
2022-11-03T02:30:27.160Z,1010.25
2022-11-03T02:31:27.188Z,1010.22
2022-11-03T02:32:27.213Z,1010.25
2022-11-03T02:33:27.236Z,1010.24
2022-11-03T02:34:27.259Z,1010.18
2022-11-03T02:35:27.284Z,1010.20
2022-11-03T02:36:27.310Z,1010.20
2022-11-03T02:37:27.337Z,1010.16
2022-11-03T02:38:27.359Z,1010.15
2022-11-03T02:39:27.385Z,1010.17
2022-11-03T02:40:27.410Z,1010.14
2022-11-03T02:41:27.436Z,1010.13
2022-11-03T02:42:27.459Z,1010.13
2022-11-03T02:43:27.485Z,1010.12
2022-11-03T02:44:27.527Z,1010.09
2022-11-03T02:45:27.536Z,1010.11
2022-11-03T02:46:27.557Z,1010.09
2022-11-03T02:47:27.584Z,1010.10
2022-11-03T02:48:27.609Z,1010.11
2022-11-03T02:49:27.640Z,1010.07
2022-11-03T02:50:27.661Z,1010.04
2022-11-03T02:51:27.684Z,1010.04
2022-11-03T02:52:27.709Z,1010.04
2022-11-03T02:53:27.735Z,1010.02
2022-11-03T02:54:27.759Z,1009.95
2022-11-03T02:55:27.789Z,1009.90
2022-11-03T02:56:27.808Z,1009.95
2022-11-03T02:57:27.886Z,1009.92
2022-11-03T02:58:27.887Z,1009.93
2022-11-03T02:59:27.884Z,1009.86
2022-11-03T03:00:27.926Z,1009.90
2022-11-03T03:01:28.063Z,1009.84
2022-11-03T03:02:28.018Z,1009.86
2022-11-03T03:03:27.985Z,1009.83
2022-11-03T03:04:28.007Z,1009.84
2022-11-03T03:05:28.035Z,1009.85
2022-11-03T03:06:28.058Z,1009.75
2022-11-03T03:07:28.089Z,1009.76
2022-11-03T03:08:28.107Z,1009.79
2022-11-03T03:09:28.137Z,1009.82
2022-11-03T03:10:28.158Z,1009.82
2022-11-03T03:11:28.216Z,1009.77
2022-11-03T03:12:28.209Z,1009.76
2022-11-03T03:13:28.235Z,1009.75
2022-11-03T03:14:28.257Z,1009.73
2022-11-03T03:15:28.284Z,1009.71
2022-11-03T03:16:28.325Z,1009.67
2022-11-03T03:17:28.334Z,1009.66
2022-11-03T03:18:28.359Z,1009.64
2022-11-03T03:19:28.385Z,1009.57
2022-11-03T03:20:28.407Z,1009.50
2022-11-03T03:21:28.433Z,1009.48
2022-11-03T03:22:28.460Z,1009.48
2022-11-03T03:23:28.483Z,1009.49
2022-11-03T03:24:28.506Z,1009.49
2022-11-03T03:25:28.533Z,1009.42
2022-11-03T03:26:28.558Z,1009.43
2022-11-03T03:27:28.586Z,1009.44
2022-11-03T03:28:28.609Z,1009.43
2022-11-03T03:29:28.636Z,1009.44
2022-11-03T03:30:28.657Z,1009.41
2022-11-03T03:31:28.682Z,1009.40
2022-11-03T03:32:28.729Z,1009.41
2022-11-03T03:34:35.226Z,1009.48
2022-11-03T03:35:28.782Z,1009.46
2022-11-03T03:36:28.806Z,1009.46
2022-11-03T03:37:28.844Z,1009.45
2022-11-03T03:38:28.861Z,1009.44
2022-11-03T03:39:28.882Z,1009.39
2022-11-03T03:40:28.907Z,1009.42
2022-11-03T03:41:28.930Z,1009.39
2022-11-03T03:42:28.957Z,1009.38
2022-11-03T03:43:28.979Z,1009.36
2022-11-03T03:44:29.007Z,1009.34
2022-11-03T03:45:29.030Z,1009.34
2022-11-03T03:46:29.061Z,1009.36
2022-11-03T03:47:29.084Z,1009.38
2022-11-03T03:48:29.130Z,1009.46
2022-11-03T03:49:29.130Z,1009.36
2022-11-03T03:50:29.158Z,1009.34
2022-11-03T03:51:29.183Z,1009.32
2022-11-03T03:52:29.206Z,1009.32
2022-11-03T03:53:29.229Z,1009.36
2022-11-03T03:54:29.256Z,1009.31
2022-11-03T03:55:29.283Z,1009.36
2022-11-03T03:56:29.306Z,1009.30
2022-11-03T03:57:29.328Z,1009.32
2022-11-03T03:58:29.356Z,1009.31
2022-11-03T03:59:29.377Z,1009.34
2022-11-03T04:00:29.406Z,1009.29
2022-11-03T04:01:29.613Z,1009.33
2022-11-03T04:02:29.568Z,1009.25
2022-11-03T04:03:29.479Z,1009.30
2022-11-03T04:04:29.524Z,1009.21
2022-11-03T04:05:29.527Z,1009.17
2022-11-03T04:06:29.552Z,1009.15
2022-11-03T04:07:29.581Z,1009.16
2022-11-03T04:08:29.606Z,1009.11
2022-11-03T04:09:29.627Z,1009.15
2022-11-03T04:10:29.653Z,1009.12
2022-11-03T04:11:29.676Z,1009.13
2022-11-03T04:12:29.710Z,1009.14
2022-11-03T04:13:29.733Z,1009.13
2022-11-03T04:14:29.753Z,1009.15
2022-11-03T04:15:29.776Z,1009.16
2022-11-03T04:16:29.805Z,1009.19
2022-11-03T04:17:29.826Z,1009.16
2022-11-03T04:18:29.853Z,1009.15
2022-11-03T04:19:29.877Z,1009.15
2022-11-03T04:20:29.922Z,1009.08
2022-11-03T04:21:29.925Z,1009.06
2022-11-03T04:22:29.952Z,1009.05
2022-11-03T04:23:29.977Z,1009.03
2022-11-03T04:24:30.001Z,1009.04
2022-11-03T04:25:30.028Z,1009.02
2022-11-03T04:26:30.056Z,1009.04
2022-11-03T04:27:30.072Z,1008.97
2022-11-03T04:28:30.101Z,1008.94
2022-11-03T04:29:30.124Z,1008.91
2022-11-03T04:30:30.164Z,1008.92
2022-11-03T04:31:30.173Z,1008.88
2022-11-03T04:32:30.200Z,1008.87
2022-11-03T04:33:30.225Z,1008.86
2022-11-03T04:34:30.249Z,1008.85
2022-11-03T04:35:30.272Z,1008.85
2022-11-03T04:36:30.318Z,1008.85
2022-11-03T04:37:30.322Z,1008.80
2022-11-03T04:38:30.356Z,1008.74
2022-11-03T04:39:30.372Z,1008.78
2022-11-03T04:40:30.398Z,1008.76
2022-11-03T04:41:30.421Z,1008.77
2022-11-03T04:42:30.450Z,1008.71
2022-11-03T04:43:30.470Z,1008.73
2022-11-03T04:44:30.497Z,1008.72
2022-11-03T04:45:30.520Z,1008.78
2022-11-03T04:46:30.547Z,1008.75
2022-11-03T04:47:30.570Z,1008.73
2022-11-03T04:48:30.596Z,1008.70
2022-11-03T04:49:30.620Z,1008.70
2022-11-03T04:50:30.647Z,1008.71
2022-11-03T04:51:30.668Z,1008.71
2022-11-03T04:52:30.714Z,1008.68
2022-11-03T04:53:30.718Z,1008.67
2022-11-03T04:54:30.746Z,1008.66
2022-11-03T04:55:30.768Z,1008.63
2022-11-03T04:56:30.796Z,1008.68
2022-11-03T04:57:30.818Z,1008.68
2022-11-03T04:58:30.844Z,1008.60
2022-11-03T04:59:30.866Z,1008.67
2022-11-03T05:00:30.898Z,1008.57
2022-11-03T05:01:31.173Z,1008.56
2022-11-03T05:02:30.943Z,1008.55
2022-11-03T05:03:30.967Z,1008.56
2022-11-03T05:04:30.994Z,1008.51
2022-11-03T05:05:31.017Z,1008.47
2022-11-03T05:06:31.058Z,1008.41
2022-11-03T05:07:31.068Z,1008.42
2022-11-03T05:08:31.109Z,1008.46
2022-11-03T05:09:31.114Z,1008.40
2022-11-03T05:10:31.142Z,1008.45
2022-11-03T05:11:31.165Z,1008.44
2022-11-03T05:12:31.191Z,1008.46
2022-11-03T05:13:31.215Z,1008.45
2022-11-03T05:14:31.243Z,1008.46
2022-11-03T05:15:31.265Z,1008.41
2022-11-03T05:16:31.290Z,1008.41
2022-11-03T05:17:31.313Z,1008.41
2022-11-03T05:18:31.341Z,1008.36
2022-11-03T05:19:31.362Z,1008.36
2022-11-03T05:20:35.742Z,1008.37
2022-11-03T05:21:31.413Z,1008.34
2022-11-03T05:22:31.439Z,1008.30
2022-11-03T05:23:31.462Z,1008.23
2022-11-03T05:24:31.510Z,1008.27
2022-11-03T05:25:31.512Z,1008.20
2022-11-03T05:26:31.539Z,1008.20
2022-11-03T05:27:31.562Z,1008.22
2022-11-03T05:28:31.588Z,1008.17
2022-11-03T05:29:31.611Z,1008.20
2022-11-03T05:30:31.639Z,1008.11
2022-11-03T05:31:31.660Z,1008.10
2022-11-03T05:32:31.692Z,1008.10
2022-11-03T05:33:31.711Z,1008.12
2022-11-03T05:34:31.743Z,1008.11
2022-11-03T05:35:31.763Z,1008.11
2022-11-03T05:36:31.787Z,1008.02
2022-11-03T05:37:31.813Z,1008.01
2022-11-03T05:38:31.837Z,1007.95
2022-11-03T05:39:31.860Z,1007.92
2022-11-03T05:40:31.907Z,1007.93
2022-11-03T05:41:31.910Z,1007.90
2022-11-03T05:42:31.937Z,1007.88
2022-11-03T05:43:31.965Z,1007.90
2022-11-03T05:44:31.986Z,1007.92
2022-11-03T05:45:32.011Z,1007.90
2022-11-03T05:46:32.036Z,1007.88
2022-11-03T05:47:32.060Z,1007.92
2022-11-03T05:48:32.094Z,1007.91
2022-11-03T05:49:32.111Z,1007.86
2022-11-03T05:50:32.136Z,1007.88
2022-11-03T05:51:32.159Z,1007.85
2022-11-03T05:52:32.190Z,1007.88
2022-11-03T05:53:32.212Z,1007.87
2022-11-03T05:54:32.241Z,1007.91
2022-11-03T05:55:32.259Z,1007.89
2022-11-03T05:56:32.314Z,1007.86
2022-11-03T05:57:32.309Z,1007.84
2022-11-03T05:58:32.337Z,1007.91
2022-11-03T05:59:32.360Z,1007.89
2022-11-03T06:00:32.392Z,1007.91
2022-11-03T06:01:32.535Z,1007.84
2022-11-03T06:02:32.534Z,1007.85
2022-11-03T06:03:32.460Z,1007.84
2022-11-03T06:04:32.488Z,1007.82
2022-11-03T06:05:32.512Z,1007.80
2022-11-03T06:06:32.783Z,1007.81
2022-11-03T06:07:32.562Z,1007.83
2022-11-03T06:08:32.587Z,1007.86
2022-11-03T06:09:32.611Z,1007.88
2022-11-03T06:10:32.638Z,1007.84
2022-11-03T06:11:32.661Z,1007.84
2022-11-03T06:12:32.713Z,1007.82
2022-11-03T06:13:32.712Z,1007.84
2022-11-03T06:14:32.740Z,1007.84
2022-11-03T06:15:32.765Z,1007.82
2022-11-03T06:16:32.788Z,1007.77
2022-11-03T06:17:32.813Z,1007.80
2022-11-03T06:18:32.845Z,1007.78
2022-11-03T06:19:32.862Z,1007.72
2022-11-03T06:20:32.889Z,1007.68
2022-11-03T06:21:32.913Z,1007.70
2022-11-03T06:22:32.949Z,1007.69
2022-11-03T06:23:32.962Z,1007.66
2022-11-03T06:24:32.998Z,1007.63
2022-11-03T06:25:33.017Z,1007.66
2022-11-03T06:26:33.042Z,1007.60
2022-11-03T06:27:33.067Z,1007.65
2022-11-03T06:28:33.110Z,1007.62
2022-11-03T06:29:33.114Z,1007.61
2022-11-03T06:30:33.256Z,1007.60
2022-11-03T06:31:33.165Z,1007.65
2022-11-03T06:32:33.202Z,1007.66
2022-11-03T06:33:33.216Z,1007.60
2022-11-03T06:34:33.243Z,1007.56
2022-11-03T06:35:33.267Z,1007.51
2022-11-03T06:36:33.295Z,1007.42
2022-11-03T06:37:33.320Z,1007.39
2022-11-03T06:38:33.445Z,1007.36
2022-11-03T06:39:33.368Z,1007.32
2022-11-03T06:40:33.396Z,1007.22
2022-11-03T06:41:33.418Z,1007.21
2022-11-03T06:42:33.446Z,1007.18
2022-11-03T06:43:33.469Z,1007.14
2022-11-03T06:44:33.514Z,1007.10
2022-11-03T06:45:33.520Z,1007.08
2022-11-03T06:46:33.553Z,1007.10
2022-11-03T06:47:33.579Z,1007.04
2022-11-03T06:48:33.597Z,1007.04
2022-11-03T06:49:33.626Z,1007.08
2022-11-03T06:50:33.650Z,1007.03
2022-11-03T06:51:33.673Z,1007.09
2022-11-03T06:52:33.816Z,1007.05
2022-11-03T06:53:33.725Z,1007.04
2022-11-03T06:54:33.750Z,1007.00
2022-11-03T06:55:33.775Z,1007.05
2022-11-03T06:56:33.801Z,1007.08
2022-11-03T06:57:33.822Z,1007.09
2022-11-03T06:58:33.854Z,1007.06
2022-11-03T06:59:33.875Z,1007.10
2022-11-03T07:00:36.106Z,1007.03
2022-11-03T07:01:34.067Z,1006.99
2022-11-03T07:02:34.136Z,1006.99
2022-11-03T07:03:33.978Z,1006.96
2022-11-03T07:04:34.004Z,1006.94
2022-11-03T07:05:34.030Z,1006.92
2022-11-03T07:06:34.058Z,1007.01
2022-11-03T07:07:34.079Z,1006.95
2022-11-03T07:08:34.107Z,1006.93
2022-11-03T07:09:34.131Z,1006.94
2022-11-03T07:10:34.160Z,1006.92
2022-11-03T07:11:34.181Z,1006.91
2022-11-03T07:12:34.209Z,1006.92
2022-11-03T07:13:34.233Z,1006.89
2022-11-03T07:14:34.262Z,1006.87
2022-11-03T07:15:34.285Z,1006.88
2022-11-03T07:16:34.385Z,1006.90
2022-11-03T07:17:34.336Z,1006.83
2022-11-03T07:18:34.367Z,1006.86
2022-11-03T07:19:34.388Z,1006.85
2022-11-03T07:20:34.412Z,1006.86
2022-11-03T07:21:34.438Z,1006.90
2022-11-03T07:22:34.464Z,1006.94
2022-11-03T07:23:34.487Z,1006.92
2022-11-03T07:24:34.517Z,1006.92
2022-11-03T07:25:34.540Z,1006.91
2022-11-03T07:26:34.565Z,1006.86
2022-11-03T07:27:34.590Z,1006.83
2022-11-03T07:28:34.618Z,1006.82
2022-11-03T07:29:34.640Z,1006.80
2022-11-03T07:30:34.671Z,1006.81
2022-11-03T07:31:34.692Z,1006.77
2022-11-03T07:32:34.740Z,1006.71
2022-11-03T07:33:34.754Z,1006.77
2022-11-03T07:34:34.771Z,1006.74
2022-11-03T07:35:53.657Z,1006.69
2022-11-03T07:36:34.822Z,1006.66
2022-11-03T07:37:34.930Z,1006.62
2022-11-03T07:38:34.874Z,1006.61
2022-11-03T07:39:34.896Z,1006.57
2022-11-03T07:40:34.924Z,1006.65
2022-11-03T07:41:35.051Z,1006.63
2022-11-03T07:42:34.976Z,1006.60
2022-11-03T07:43:34.998Z,1006.57
2022-11-03T07:44:35.027Z,1006.57
2022-11-03T07:45:35.050Z,1006.58
2022-11-03T07:46:35.085Z,1006.47
2022-11-03T07:47:35.101Z,1006.55
2022-11-03T07:48:35.148Z,1006.55
2022-11-03T07:49:35.153Z,1006.61
2022-11-03T07:50:35.180Z,1006.60
2022-11-03T07:51:35.204Z,1006.59
2022-11-03T07:52:35.233Z,1006.55
2022-11-03T07:53:35.257Z,1006.51
2022-11-03T07:54:35.285Z,1006.53
2022-11-03T07:55:35.312Z,1006.51
2022-11-03T07:56:35.436Z,1006.51
2022-11-03T07:57:35.363Z,1006.51
2022-11-03T07:58:35.387Z,1006.44
2022-11-03T07:59:35.415Z,1006.47
2022-11-03T08:00:35.440Z,1006.45
2022-11-03T08:01:35.594Z,1006.51
2022-11-03T08:02:35.543Z,1006.45
2022-11-03T08:03:35.519Z,1006.41
2022-11-03T08:04:35.569Z,1006.39
2022-11-03T08:05:35.575Z,1006.41
2022-11-03T08:06:35.596Z,1006.40
2022-11-03T08:07:35.624Z,1006.41
2022-11-03T08:08:35.650Z,1006.35
2022-11-03T08:09:35.679Z,1006.31
2022-11-03T08:10:35.703Z,1006.29
2022-11-03T08:11:35.731Z,1006.28
2022-11-03T08:12:35.756Z,1006.30
2022-11-03T08:13:35.784Z,1006.21
2022-11-03T08:14:35.809Z,1006.29
2022-11-03T08:15:35.834Z,1006.31
2022-11-03T08:16:35.864Z,1006.26
2022-11-03T08:17:35.890Z,1006.30
2022-11-03T08:18:35.914Z,1006.33
2022-11-03T08:19:35.950Z,1006.30
2022-11-03T08:20:35.989Z,1006.31
2022-11-03T08:21:36.000Z,1006.28
2022-11-03T08:22:36.022Z,1006.24
2022-11-03T08:23:36.048Z,1006.26
2022-11-03T08:24:36.079Z,1006.32
2022-11-03T08:25:36.102Z,1006.28
2022-11-03T08:26:36.126Z,1006.27
2022-11-03T08:27:36.158Z,1006.31
2022-11-03T08:28:36.183Z,1006.19
2022-11-03T08:29:36.209Z,1006.18
2022-11-03T08:30:36.235Z,1006.18
2022-11-03T08:31:36.261Z,1006.20
2022-11-03T08:32:36.286Z,1006.16
2022-11-03T08:33:36.316Z,1006.09
2022-11-03T08:34:36.345Z,1006.07
2022-11-03T08:35:36.380Z,1006.06
2022-11-03T08:36:36.415Z,1006.10
2022-11-03T08:37:36.423Z,1006.04
2022-11-03T08:38:36.458Z,1006.13
2022-11-03T08:39:36.601Z,1006.08
2022-11-03T08:40:36.501Z,1006.07
2022-11-03T08:41:36.532Z,1006.05
2022-11-03T08:42:36.555Z,1006.03
2022-11-03T08:43:36.584Z,1006.02
2022-11-03T08:44:36.608Z,1006.01
2022-11-03T08:45:36.637Z,1005.95
2022-11-03T08:46:36.669Z,1005.92
2022-11-03T08:47:36.692Z,1005.91
2022-11-03T08:48:36.728Z,1005.90
2022-11-03T08:49:36.745Z,1005.88
2022-11-03T08:50:36.772Z,1005.90
2022-11-03T08:51:40.188Z,1005.84
2022-11-03T08:52:36.842Z,1005.84
2022-11-03T08:53:36.854Z,1005.80
2022-11-03T08:54:36.879Z,1005.80
2022-11-03T08:55:36.905Z,1005.82
2022-11-03T08:56:36.932Z,1005.72
2022-11-03T08:57:36.960Z,1005.71
2022-11-03T08:58:36.985Z,1005.69
2022-11-03T08:59:37.014Z,1005.68
2022-11-03T09:00:41.116Z,1005.66
2022-11-03T09:01:37.116Z,1005.59
2022-11-03T09:02:37.167Z,1005.58
2022-11-03T09:03:37.193Z,1005.58
2022-11-03T09:04:37.150Z,1005.56
2022-11-03T09:05:37.178Z,1005.54
2022-11-03T09:06:37.205Z,1005.53
2022-11-03T09:10:42.186Z,1005.44
2022-11-03T09:11:37.340Z,1005.39
2022-11-03T09:12:37.367Z,1005.36
2022-11-03T09:13:37.396Z,1005.30
2022-11-03T09:14:37.420Z,1005.29
2022-11-03T09:15:37.450Z,1005.28
2022-11-03T09:16:37.478Z,1005.23
2022-11-03T09:17:39.473Z,1005.23
2022-11-03T09:18:37.529Z,1005.22
2022-11-03T09:19:37.558Z,1005.26
2022-11-03T09:20:37.584Z,1005.21
2022-11-03T09:21:37.615Z,1005.17
2022-11-03T09:22:37.645Z,1005.20
2022-11-03T09:23:37.667Z,1005.11
2022-11-03T09:24:37.715Z,1005.15
2022-11-03T09:25:37.722Z,1005.16
2022-11-03T09:26:37.750Z,1005.12
2022-11-03T09:27:37.777Z,1005.15
2022-11-03T09:28:37.802Z,1005.13
2022-11-03T09:30:06.708Z,1005.13
2022-11-03T09:30:37.859Z,1005.05
2022-11-03T09:31:37.887Z,1005.06
2022-11-03T09:32:37.914Z,1004.99
2022-11-03T09:33:37.943Z,1004.98
2022-11-03T09:34:37.969Z,1004.94
2022-11-03T09:35:37.996Z,1004.86
2022-11-03T09:36:38.024Z,1004.82
2022-11-03T09:37:38.053Z,1004.85
2022-11-03T09:38:38.077Z,1004.87
2022-11-03T09:39:38.106Z,1004.79
2022-11-03T09:40:38.241Z,1004.80
2022-11-03T09:41:57.855Z,1004.73
2022-11-03T09:42:38.187Z,1004.70
2022-11-03T09:43:38.214Z,1004.64
2022-11-03T09:44:38.241Z,1004.59
2022-11-03T09:45:38.271Z,1004.52
2022-11-03T09:46:38.399Z,1004.52
2022-11-03T09:47:38.326Z,1004.56
2022-11-03T09:48:38.351Z,1004.55
2022-11-03T09:49:38.385Z,1004.52
2022-11-03T09:50:38.408Z,1004.59
2022-11-03T09:51:38.436Z,1004.52
2022-11-03T09:52:38.463Z,1004.51
2022-11-03T09:53:38.492Z,1004.50
2022-11-03T09:54:38.520Z,1004.47
2022-11-03T09:55:38.546Z,1004.41
2022-11-03T09:56:38.590Z,1004.31
2022-11-03T09:57:38.602Z,1004.26
2022-11-03T09:58:38.629Z,1004.28
2022-11-03T09:59:38.659Z,1004.24
2022-11-03T10:00:38.712Z,1004.18
2022-11-03T10:01:38.858Z,1004.18
2022-11-03T10:02:38.737Z,1004.11
2022-11-03T10:03:38.767Z,1004.14
2022-11-03T10:04:38.793Z,1004.09
2022-11-03T10:05:38.823Z,1004.08
2022-11-03T10:06:38.849Z,1004.10
2022-11-03T10:07:38.879Z,1004.06
2022-11-03T10:08:38.903Z,1004.03
2022-11-03T10:09:38.934Z,1003.97
2022-11-03T10:10:38.959Z,1003.91
2022-11-03T10:11:38.989Z,1003.87
2022-11-03T10:12:39.034Z,1003.88
2022-11-03T10:13:39.043Z,1003.85
2022-11-03T10:14:39.070Z,1003.81
2022-11-03T10:15:39.099Z,1003.82
2022-11-03T10:16:39.125Z,1003.88
2022-11-03T10:17:39.155Z,1003.85
2022-11-03T10:18:39.183Z,1003.84
2022-11-03T10:19:39.210Z,1003.89
2022-11-03T10:20:39.236Z,1003.89
2022-11-03T10:21:39.268Z,1003.91
2022-11-03T10:22:41.119Z,1003.91
2022-11-03T10:23:39.321Z,1003.92
2022-11-03T10:24:39.346Z,1004.00
2022-11-03T10:25:39.376Z,1003.93
2022-11-03T10:26:39.404Z,1003.86
2022-11-03T10:27:39.435Z,1003.83
2022-11-03T10:28:39.480Z,1003.91
2022-11-03T10:29:40.536Z,1003.83
2022-11-03T10:30:58.070Z,1003.88
2022-11-03T10:31:39.543Z,1003.78
2022-11-03T10:32:39.569Z,1003.74
2022-11-03T10:33:39.600Z,1003.71
2022-11-03T10:34:39.690Z,1003.69
2022-11-03T10:35:39.656Z,1003.67
2022-11-03T10:36:39.695Z,1003.68
2022-11-03T10:37:39.711Z,1003.65
2022-11-03T10:38:39.738Z,1003.60
2022-11-03T10:39:39.769Z,1003.53
2022-11-03T10:40:47.664Z,1003.50
2022-11-03T10:41:39.822Z,1003.47
2022-11-03T10:42:39.850Z,1003.44
2022-11-03T10:43:39.877Z,1003.39
2022-11-03T10:44:39.924Z,1003.41
2022-11-03T10:45:39.934Z,1003.33
2022-11-03T10:46:55.263Z,1003.27
2022-11-03T10:47:39.989Z,1003.24
2022-11-03T10:48:40.016Z,1003.23
2022-11-03T10:49:43.615Z,1003.27
2022-11-03T10:50:40.071Z,1003.20
2022-11-03T10:51:40.101Z,1003.12
2022-11-03T10:52:40.137Z,1003.10
2022-11-03T10:53:40.156Z,1003.08
2022-11-03T10:54:40.181Z,1003.06
2022-11-03T10:55:40.223Z,1003.00
2022-11-03T10:56:40.237Z,1002.98
2022-11-03T10:57:40.266Z,1002.95
2022-11-03T10:58:40.293Z,1002.96
2022-11-03T10:59:40.321Z,1002.93
2022-11-03T11:00:40.419Z,1002.92
2022-11-03T11:01:40.522Z,1002.85
2022-11-03T11:02:40.524Z,1002.77
2022-11-03T11:03:40.432Z,1002.62
2022-11-03T11:04:40.523Z,1002.61
2022-11-03T11:05:40.489Z,1002.57
2022-11-03T11:06:40.513Z,1002.54
2022-11-03T11:07:40.607Z,1002.50
2022-11-03T11:08:40.573Z,1002.42
2022-11-03T11:09:40.597Z,1002.45
2022-11-03T11:10:40.625Z,1002.49
2022-11-03T11:11:40.654Z,1002.49
2022-11-03T11:12:40.679Z,1002.56
2022-11-03T11:13:40.710Z,1002.57
2022-11-03T11:14:40.735Z,1002.56
2022-11-03T11:15:40.764Z,1002.70
2022-11-03T11:16:40.824Z,1002.75
2022-11-03T11:17:40.819Z,1002.61
2022-11-03T11:18:40.854Z,1002.69
2022-11-03T11:19:40.874Z,1002.72
2022-11-03T11:20:40.901Z,1002.76
2022-11-03T11:21:40.929Z,1002.80
2022-11-03T11:22:40.955Z,1002.91
2022-11-03T11:23:40.984Z,1002.85
2022-11-03T11:24:41.011Z,1002.73
2022-11-03T11:25:41.038Z,1002.71
2022-11-03T11:26:41.070Z,1002.67
2022-11-03T11:27:41.095Z,1002.52
2022-11-03T11:28:41.122Z,1002.55
2022-11-03T11:29:41.154Z,1002.48
2022-11-03T11:30:41.176Z,1002.45
2022-11-03T11:31:41.205Z,1002.44
2022-11-03T11:32:41.250Z,1002.53
2022-11-03T11:33:41.261Z,1002.49
2022-11-03T11:34:41.285Z,1002.54
2022-11-03T11:35:41.315Z,1002.61
2022-11-03T11:36:41.341Z,1002.63
2022-11-03T11:37:41.372Z,1002.60
2022-11-03T11:38:41.395Z,1002.65
2022-11-03T11:39:41.423Z,1002.62
2022-11-03T11:40:41.451Z,1002.58
2022-11-03T11:41:41.482Z,1002.69
2022-11-03T11:42:41.506Z,1002.62
2022-11-03T11:43:41.536Z,1002.67
2022-11-03T11:44:41.562Z,1002.61
2022-11-03T11:45:41.592Z,1002.52
2022-11-03T11:46:41.617Z,1002.44
2022-11-03T11:47:41.645Z,1002.41
2022-11-03T11:48:41.690Z,1002.55
2022-11-03T11:49:41.702Z,1002.46
2022-11-03T11:50:41.727Z,1002.53
2022-11-03T11:51:41.755Z,1002.51
2022-11-03T11:52:41.782Z,1002.44
2022-11-03T11:53:41.813Z,1002.40
2022-11-03T11:54:41.838Z,1002.42
2022-11-03T11:55:41.867Z,1002.35
2022-11-03T11:56:41.892Z,1002.33
2022-11-03T11:57:41.922Z,1002.29
2022-11-03T11:58:42.531Z,1002.20
2022-11-03T11:59:41.976Z,1002.11
2022-11-03T12:00:42.003Z,1002.15
2022-11-03T12:01:42.120Z,1001.99
2022-11-03T12:02:42.059Z,1001.94
2022-11-03T12:03:42.105Z,1001.85
2022-11-03T12:04:42.135Z,1001.71
2022-11-03T12:05:42.143Z,1001.73
2022-11-03T12:06:42.261Z,1001.80
2022-11-03T12:07:42.197Z,1001.72
2022-11-03T12:08:42.224Z,1001.62
2022-11-03T12:09:42.252Z,1001.46